الصفحة الرئيسية
METAR-TAF:

METAR-TAF

مطار :

بوندابيرج, أستراليا

دائرة عرض: 24-54-14S, خط طول: 152-19-07E, ارتفاع: 33 متر

مراقبة الطقس الحالي

تاريخ ووقت الإصدار 35 دقيقة قبل الساعة 06:00UTC
ريح 12 عقدة من الشرق
درجة الحرارة 27°درجة مئوية
الرطوبة 48%
ضغط 1012 hPa
الرؤية 10 كم أو أكثر

METAR: YBUD 060600Z AUTO 10012KT 9999 // NCD 27/15 Q1012

زمن: 16:35 (06:35 UTC)


TAF: مفقودة

أرصاد الطقس والتوقعات من أكثر من 4000 مطار (تقارير الطقس للمطار METAR والتنبؤ بالطقس بالمطارTAF).

المحطات المتاحة هي النقط الصفراء والحمراء على الخريطة.

حرك المؤشر فوق النقطة لمعرفة اسم المحطة.

ثم انقر لمعرفة أرصاد وتوقعات الطقس.

لتغيير الخارطة: اضغط على الأزرار الخضراء مع رمز الصليب الأسود للتكبير. على الزر الأخضر مع شرطة للتصغير، أو على الأسهم الخضراء للخرائط المجاورة.


METAR-TAF: